createdAt,value
2022-08-17T00:00:12.816Z,22.62
2022-08-17T00:02:41.134Z,22.63
2022-08-17T00:04:50.561Z,22.60
2022-08-17T00:06:55.579Z,22.58
2022-08-17T00:09:02.237Z,22.57
2022-08-17T00:11:08.909Z,22.54
2022-08-17T00:13:16.581Z,22.47
2022-08-17T00:15:22.856Z,22.42
2022-08-17T00:17:28.008Z,22.35
2022-08-17T00:19:35.302Z,22.28
2022-08-17T00:22:31.501Z,22.29
2022-08-17T00:24:07.823Z,22.26
2022-08-17T00:26:12.913Z,22.18
2022-08-17T00:28:19.554Z,22.15
2022-08-17T00:30:25.830Z,22.15
2022-08-17T00:33:13.838Z,22.13
2022-08-17T00:34:58.123Z,22.11
2022-08-17T00:37:02.945Z,22.11
2022-08-17T00:39:07.972Z,22.07
2022-08-17T00:41:14.919Z,22.06
2022-08-17T00:43:28.677Z,22.05
2022-08-17T00:45:33.501Z,22.01
2022-08-17T00:47:38.495Z,21.96
2022-08-17T00:49:43.398Z,21.94
2022-08-17T00:51:55.570Z,21.90
2022-08-17T00:54:11.891Z,21.85
2022-08-17T00:56:21.440Z,21.80
2022-08-17T00:58:36.099Z,21.78
2022-08-17T01:00:45.925Z,21.76
2022-08-17T01:02:51.638Z,21.69
2022-08-17T01:04:57.287Z,21.67
2022-08-17T01:07:07.165Z,21.65
2022-08-17T01:09:12.136Z,21.61
2022-08-17T01:11:17.323Z,21.60
2022-08-17T01:13:22.334Z,21.59
2022-08-17T01:15:27.336Z,21.54
2022-08-17T01:17:32.200Z,21.45
2022-08-17T01:19:39.440Z,21.44
2022-08-17T01:21:49.810Z,21.41
2022-08-17T01:23:57.382Z,21.39
2022-08-17T01:26:06.483Z,21.35
2022-08-17T01:28:11.449Z,21.36
2022-08-17T01:30:58.562Z,21.28
2022-08-17T01:33:01.478Z,21.25
2022-08-17T01:35:07.915Z,21.21
2022-08-17T01:37:13.341Z,21.15
2022-08-17T01:39:34.655Z,21.12
2022-08-17T01:41:41.081Z,21.11
2022-08-17T01:43:48.934Z,21.13
2022-08-17T01:46:03.833Z,21.14
2022-08-17T01:48:09.432Z,21.10
2022-08-17T01:50:17.469Z,21.06
2022-08-17T01:52:23.920Z,21.08
2022-08-17T01:54:31.397Z,21.10
2022-08-17T01:56:38.243Z,21.07
2022-08-17T01:58:45.777Z,21.00
2022-08-17T02:01:00.939Z,20.94
2022-08-17T02:03:08.489Z,20.89
2022-08-17T02:05:13.416Z,20.88
2022-08-17T02:07:18.266Z,20.86
2022-08-17T02:09:34.071Z,20.86
2022-08-17T02:11:40.559Z,20.84
2022-08-17T02:13:45.865Z,20.78
2022-08-17T02:15:50.954Z,20.70
2022-08-17T02:17:56.476Z,20.66
2022-08-17T02:20:01.469Z,20.62
2022-08-17T02:22:06.529Z,20.59
2022-08-17T02:24:14.985Z,20.59
2022-08-17T02:26:25.601Z,20.62
2022-08-17T02:28:32.189Z,20.58
2022-08-17T02:31:00.007Z,20.54
2022-08-17T02:33:04.328Z,20.46
2022-08-17T02:35:13.475Z,20.42
2022-08-17T02:37:19.818Z,20.42
2022-08-17T02:39:24.864Z,20.42
2022-08-17T02:41:32.393Z,20.43
2022-08-17T02:43:37.553Z,20.42
2022-08-17T02:45:42.073Z,20.38
2022-08-17T02:47:47.695Z,20.32
2022-08-17T02:49:54.338Z,20.34
2022-08-17T02:52:01.169Z,20.36
2022-08-17T02:54:40.415Z,20.32
2022-08-17T02:56:33.471Z,20.32
2022-08-17T02:58:38.394Z,20.31
2022-08-17T03:00:47.249Z,20.31
2022-08-17T03:02:53.170Z,20.32
2022-08-17T03:04:57.993Z,20.30
2022-08-17T03:07:02.844Z,20.29
2022-08-17T03:09:07.788Z,20.29
2022-08-17T03:11:13.050Z,20.23
2022-08-17T03:13:20.863Z,20.25
2022-08-17T03:15:27.906Z,20.25
2022-08-17T03:17:32.829Z,20.26
2022-08-17T03:19:37.673Z,20.25
2022-08-17T03:21:54.851Z,20.25
2022-08-17T03:24:00.445Z,20.17
2022-08-17T03:26:05.301Z,20.12
2022-08-17T03:28:17.259Z,20.11
2022-08-17T03:30:25.406Z,20.11
2022-08-17T03:32:30.303Z,20.09
2022-08-17T03:34:35.193Z,20.11
2022-08-17T03:36:40.084Z,20.14
2022-08-17T03:38:45.102Z,20.18
2022-08-17T03:40:57.564Z,20.19
2022-08-17T03:43:09.107Z,20.16
2022-08-17T03:45:17.063Z,20.15
2022-08-17T03:47:38.077Z,20.09
2022-08-17T03:49:58.602Z,20.01
2022-08-17T03:52:15.855Z,19.98
2022-08-17T03:54:33.201Z,19.90
2022-08-17T03:56:47.184Z,19.90
2022-08-17T03:58:53.042Z,19.92
2022-08-17T04:00:58.769Z,19.92
2022-08-17T04:03:06.919Z,19.93
2022-08-17T04:05:15.069Z,19.90
2022-08-17T04:07:20.579Z,19.92
2022-08-17T04:09:25.456Z,19.96
2022-08-17T04:11:30.503Z,20.00
2022-08-17T04:13:35.442Z,20.06
2022-08-17T04:15:40.220Z,20.07
2022-08-17T04:17:45.911Z,20.11
2022-08-17T04:19:53.393Z,20.11
2022-08-17T04:21:58.313Z,20.04
2022-08-17T04:24:03.641Z,20.04
2022-08-17T04:26:08.927Z,20.03
2022-08-17T04:28:16.249Z,19.98
2022-08-17T04:30:21.430Z,19.90
2022-08-17T04:33:03.691Z,19.88
2022-08-17T04:34:53.893Z,19.81
2022-08-17T04:36:58.729Z,19.80
2022-08-17T04:39:04.558Z,19.81
2022-08-17T04:41:28.642Z,19.85
2022-08-17T04:43:35.634Z,19.84
2022-08-17T04:45:55.422Z,19.85
2022-08-17T04:48:01.336Z,19.81
2022-08-17T04:50:10.126Z,19.92
2022-08-17T04:52:29.875Z,19.96
2022-08-17T04:54:40.244Z,20.04
2022-08-17T04:56:45.850Z,20.04
2022-08-17T04:58:52.752Z,20.08
2022-08-17T05:00:57.662Z,20.06
2022-08-17T05:03:02.941Z,20.02
2022-08-17T05:05:11.537Z,19.98
2022-08-17T05:07:23.079Z,19.89
2022-08-17T05:09:29.120Z,19.89
2022-08-17T05:11:33.986Z,19.91
2022-08-17T05:13:38.938Z,19.97
2022-08-17T05:15:45.336Z,20.03
2022-08-17T05:17:52.851Z,20.06
2022-08-17T05:19:57.677Z,20.08
2022-08-17T05:22:07.804Z,20.10
2022-08-17T05:24:38.671Z,20.06
2022-08-17T05:26:38.093Z,20.07
2022-08-17T05:28:43.380Z,20.09
2022-08-17T05:30:51.651Z,20.13
2022-08-17T05:32:58.973Z,20.20
2022-08-17T05:35:03.937Z,20.22
2022-08-17T05:37:11.367Z,20.25
2022-08-17T05:39:17.510Z,20.25
2022-08-17T05:41:22.387Z,20.22
2022-08-17T05:43:29.804Z,20.22
2022-08-17T05:45:55.448Z,20.25
2022-08-17T05:48:00.851Z,20.28
2022-08-17T05:50:09.552Z,20.38
2022-08-17T05:52:25.654Z,20.51
2022-08-17T05:54:41.828Z,20.63
2022-08-17T05:57:16.677Z,20.76
2022-08-17T05:59:36.506Z,20.85
2022-08-17T06:01:50.851Z,21.01
2022-08-17T06:04:03.766Z,21.13
2022-08-17T06:06:31.606Z,21.38
2022-08-17T06:08:51.747Z,21.65
2022-08-17T06:11:05.508Z,21.67
2022-08-17T06:13:20.489Z,21.67
2022-08-17T06:15:33.773Z,21.60
2022-08-17T06:17:39.836Z,21.63
2022-08-17T06:19:48.667Z,21.65
2022-08-17T06:21:56.584Z,21.74
2022-08-17T06:24:08.705Z,21.85
2022-08-17T06:26:19.255Z,21.89
2022-08-17T06:28:33.113Z,21.98
2022-08-17T06:31:00.241Z,22.05
2022-08-17T06:33:09.675Z,22.12
2022-08-17T06:35:17.132Z,22.09
2022-08-17T06:37:48.980Z,22.14
2022-08-17T06:40:03.801Z,22.13
2022-08-17T06:43:02.398Z,22.17
2022-08-17T06:44:51.773Z,22.10
2022-08-17T06:47:09.077Z,22.12
2022-08-17T06:49:26.027Z,22.23
2022-08-17T06:51:35.947Z,22.31
2022-08-17T06:53:45.938Z,22.38
2022-08-17T06:56:01.428Z,22.39
2022-08-17T06:58:16.482Z,22.50
2022-08-17T07:00:25.037Z,22.62
2022-08-17T07:02:52.382Z,22.65
2022-08-17T07:04:58.259Z,22.67
2022-08-17T07:07:26.842Z,22.78
2022-08-17T07:09:37.229Z,22.97
2022-08-17T07:11:53.223Z,23.09
2022-08-17T07:14:13.951Z,23.15
2022-08-17T07:16:27.647Z,23.17
2022-08-17T07:18:34.777Z,23.23
2022-08-17T07:20:45.977Z,23.34
2022-08-17T07:22:59.661Z,23.41
2022-08-17T07:25:08.541Z,23.50
2022-08-17T07:27:21.381Z,23.58
2022-08-17T07:29:27.151Z,23.70
2022-08-17T07:31:34.082Z,23.85
2022-08-17T07:33:41.085Z,24.02
2022-08-17T07:35:48.509Z,24.15
2022-08-17T07:38:07.241Z,24.31
2022-08-17T07:40:35.997Z,24.44
2022-08-17T07:42:46.703Z,24.53
2022-08-17T07:44:58.071Z,24.60
2022-08-17T07:47:15.431Z,24.71
2022-08-17T07:49:37.187Z,24.81
2022-08-17T07:51:55.741Z,24.88
2022-08-17T07:54:14.578Z,25.01
2022-08-17T07:56:40.534Z,25.18
2022-08-17T07:58:49.068Z,25.26
2022-08-17T08:01:09.915Z,25.35
2022-08-17T08:03:18.942Z,25.43
2022-08-17T08:05:31.715Z,25.53
2022-08-17T08:07:56.430Z,25.67
2022-08-17T08:10:12.923Z,25.80
2022-08-17T08:12:33.417Z,25.92
2022-08-17T08:14:43.653Z,26.04
2022-08-17T08:17:00.122Z,26.13
2022-08-17T08:19:05.329Z,26.18
2022-08-17T08:21:15.463Z,26.29
2022-08-17T08:23:29.649Z,26.35
2022-08-17T08:25:53.591Z,26.46
2022-08-17T08:28:10.380Z,26.55
2022-08-17T08:30:21.490Z,26.63
2022-08-17T08:32:42.953Z,26.79
2022-08-17T08:35:03.383Z,26.84
2022-08-17T08:37:30.126Z,26.98
2022-08-17T08:39:46.632Z,27.04
2022-08-17T08:42:01.895Z,27.09
2022-08-17T08:44:17.215Z,27.23
2022-08-17T08:46:35.606Z,27.32
2022-08-17T08:49:14.536Z,27.40
2022-08-17T08:51:29.633Z,27.53
2022-08-17T08:53:43.324Z,27.69
2022-08-17T08:55:55.846Z,27.79
2022-08-17T08:58:05.881Z,27.91
2022-08-17T09:00:16.588Z,28.03
2022-08-17T09:02:37.797Z,28.16
2022-08-17T09:05:13.959Z,28.28
2022-08-17T09:07:31.538Z,28.32
2022-08-17T09:09:48.263Z,28.42
2022-08-17T09:12:04.111Z,28.38
2022-08-17T09:14:21.581Z,28.48
2022-08-17T09:16:37.001Z,28.59
2022-08-17T09:19:03.606Z,28.64
2022-08-17T09:21:19.491Z,28.77
2022-08-17T09:23:34.461Z,28.87
2022-08-17T09:25:50.535Z,28.99
2022-08-17T09:28:00.668Z,29.09
2022-08-17T09:30:12.017Z,29.12
2022-08-17T09:32:22.273Z,29.23
2022-08-17T09:34:38.325Z,29.24
2022-08-17T09:36:48.191Z,29.31
2022-08-17T09:39:02.760Z,29.41
2022-08-17T09:41:15.139Z,29.46
2022-08-17T09:43:28.932Z,29.54
2022-08-17T09:45:37.531Z,29.62
2022-08-17T09:47:51.137Z,29.69
2022-08-17T09:50:04.565Z,29.79
2022-08-17T09:52:18.745Z,29.83
2022-08-17T09:54:40.383Z,29.86
2022-08-17T09:57:25.709Z,29.94
2022-08-17T09:59:41.898Z,29.99
2022-08-17T10:01:54.513Z,29.96
2022-08-17T10:04:14.299Z,30.04
2022-08-17T10:06:27.411Z,29.94
2022-08-17T10:08:42.526Z,29.99
2022-08-17T10:10:58.931Z,30.05
2022-08-17T10:13:13.835Z,30.16
2022-08-17T10:15:27.586Z,30.27
2022-08-17T10:17:39.315Z,30.38
2022-08-17T10:19:54.412Z,30.49
2022-08-17T10:22:34.665Z,30.50
2022-08-17T10:25:21.174Z,30.59
2022-08-17T10:27:28.114Z,30.60
2022-08-17T10:29:49.152Z,30.57
2022-08-17T10:32:00.708Z,30.59
2022-08-17T10:34:38.806Z,30.42
2022-08-17T10:36:57.578Z,30.47
2022-08-17T10:39:13.869Z,30.59
2022-08-17T10:41:29.504Z,30.84
2022-08-17T10:44:37.560Z,31.04
2022-08-17T10:46:31.371Z,31.25
2022-08-17T10:48:39.348Z,31.39
2022-08-17T10:51:01.152Z,31.47
2022-08-17T10:53:05.979Z,31.57
2022-08-17T10:55:17.959Z,31.72
2022-08-17T10:57:41.962Z,31.70
2022-08-17T10:59:56.385Z,31.85
2022-08-17T11:02:17.016Z,32.06
2022-08-17T11:04:33.089Z,32.16
2022-08-17T11:06:48.247Z,32.37
2022-08-17T11:09:26.511Z,32.41
2022-08-17T11:12:02.680Z,32.40
2022-08-17T11:14:18.991Z,32.28
2022-08-17T11:16:47.987Z,32.17
2022-08-17T11:19:15.003Z,32.15
2022-08-17T11:21:42.440Z,32.02
2022-08-17T11:24:03.564Z,31.84
2022-08-17T11:26:26.312Z,31.79
2022-08-17T11:28:37.338Z,31.71
2022-08-17T11:30:49.857Z,31.74
2022-08-17T11:32:57.642Z,31.66
2022-08-17T11:35:29.720Z,31.64
2022-08-17T11:37:52.276Z,31.70
2022-08-17T11:40:18.021Z,31.79
2022-08-17T11:42:30.524Z,31.57
2022-08-17T11:44:53.232Z,31.63
2022-08-17T11:47:24.310Z,31.70
2022-08-17T11:49:52.180Z,31.80
2022-08-17T11:52:13.263Z,31.94
2022-08-17T11:54:40.340Z,32.01
2022-08-17T11:56:49.186Z,32.10
2022-08-17T11:58:54.191Z,32.03
2022-08-17T12:01:03.973Z,31.99
2022-08-17T12:03:28.220Z,31.96
2022-08-17T12:05:37.804Z,31.96
2022-08-17T12:07:47.901Z,31.99
2022-08-17T12:09:57.319Z,32.00
2022-08-17T12:12:12.347Z,32.02
2022-08-17T12:14:39.921Z,31.97
2022-08-17T12:17:01.739Z,31.89
2022-08-17T12:19:08.317Z,31.79
2022-08-17T12:21:31.073Z,31.70
2022-08-17T12:23:44.470Z,31.71
2022-08-17T12:25:56.897Z,31.86
2022-08-17T12:28:06.666Z,31.97
2022-08-17T12:30:16.811Z,32.11
2022-08-17T12:32:25.311Z,32.28
2022-08-17T12:34:44.142Z,32.33
2022-08-17T12:36:53.012Z,32.49
2022-08-17T12:39:13.074Z,32.61
2022-08-17T12:41:34.338Z,32.61
2022-08-17T12:43:39.179Z,32.65
2022-08-17T12:45:44.308Z,32.72
2022-08-17T12:48:07.118Z,32.71
2022-08-17T12:50:29.238Z,32.57
2022-08-17T12:52:36.117Z,32.47
2022-08-17T12:54:50.848Z,32.31
2022-08-17T12:56:56.137Z,32.17
2022-08-17T12:59:02.345Z,32.13
2022-08-17T13:01:11.622Z,32.19
2022-08-17T13:03:21.924Z,32.36
2022-08-17T13:05:31.647Z,32.50
2022-08-17T13:07:39.254Z,32.52
2022-08-17T13:09:53.714Z,32.57
2022-08-17T13:12:01.801Z,32.56
2022-08-17T13:14:13.132Z,32.61
2022-08-17T13:16:20.961Z,32.60
2022-08-17T13:18:45.214Z,32.52
2022-08-17T13:20:54.559Z,32.44
2022-08-17T13:23:01.437Z,32.28
2022-08-17T13:25:09.558Z,32.28
2022-08-17T13:27:18.941Z,32.10
2022-08-17T13:29:29.795Z,31.87
2022-08-17T13:31:52.968Z,31.80
2022-08-17T13:34:22.140Z,31.72
2022-08-17T13:36:33.676Z,31.76
2022-08-17T13:38:45.720Z,31.83
2022-08-17T13:40:54.324Z,31.66
2022-08-17T13:43:00.212Z,31.63
2022-08-17T13:45:32.349Z,31.57
2022-08-17T13:47:31.036Z,31.49
2022-08-17T13:49:48.384Z,31.42
2022-08-17T13:52:01.845Z,31.42
2022-08-17T13:54:11.382Z,31.48
2022-08-17T13:56:37.969Z,31.57
2022-08-17T13:58:55.794Z,31.63
2022-08-17T14:01:01.759Z,31.66
2022-08-17T14:03:08.401Z,31.69
2022-08-17T14:05:15.911Z,31.64
2022-08-17T14:07:30.252Z,31.65
2022-08-17T14:09:37.730Z,31.62
2022-08-17T14:11:42.807Z,31.64
2022-08-17T14:13:47.945Z,31.87
2022-08-17T14:15:56.282Z,32.23
2022-08-17T14:18:01.740Z,32.54
2022-08-17T14:20:09.530Z,32.72
2022-08-17T14:22:23.803Z,32.86
2022-08-17T14:24:31.634Z,32.94
2022-08-17T14:26:36.475Z,32.92
2022-08-17T14:28:49.407Z,32.97
2022-08-17T14:30:59.636Z,33.04
2022-08-17T14:33:06.017Z,33.06
2022-08-17T14:35:14.733Z,33.05
2022-08-17T14:37:26.444Z,33.00
2022-08-17T14:39:32.931Z,32.72
2022-08-17T14:41:38.227Z,32.60
2022-08-17T14:43:43.076Z,32.26
2022-08-17T14:45:48.038Z,31.77
2022-08-17T14:47:52.919Z,31.52
2022-08-17T14:50:02.173Z,31.63
2022-08-17T14:52:07.423Z,31.71
2022-08-17T14:54:29.401Z,31.73
2022-08-17T14:56:38.861Z,31.52
2022-08-17T14:58:43.989Z,31.27
2022-08-17T15:00:51.059Z,31.32
2022-08-17T15:02:58.592Z,31.13
2022-08-17T15:05:05.309Z,30.98
2022-08-17T15:07:10.937Z,30.94
2022-08-17T15:09:19.450Z,30.81
2022-08-17T15:11:24.664Z,30.61
2022-08-17T15:13:29.993Z,30.57
2022-08-17T15:15:34.960Z,30.54
2022-08-17T15:17:44.982Z,30.59
2022-08-17T15:19:50.722Z,30.78
2022-08-17T15:21:55.721Z,30.77
2022-08-17T15:24:00.367Z,30.82
2022-08-17T15:26:07.992Z,30.80
2022-08-17T15:28:13.188Z,30.61
2022-08-17T15:30:18.226Z,30.65
2022-08-17T15:32:30.236Z,30.84
2022-08-17T15:34:35.213Z,30.90
2022-08-17T15:36:45.491Z,30.97
2022-08-17T15:38:54.552Z,31.01
2022-08-17T15:41:00.398Z,31.20
2022-08-17T15:43:11.746Z,31.39
2022-08-17T15:45:17.079Z,31.51
2022-08-17T15:47:21.891Z,31.82
2022-08-17T15:49:26.538Z,31.92
2022-08-17T15:51:33.743Z,31.92
2022-08-17T15:53:40.137Z,31.90
2022-08-17T15:55:45.032Z,31.83
2022-08-17T15:57:50.116Z,31.74
2022-08-17T15:59:59.635Z,31.71
2022-08-17T16:03:14.921Z,31.59
2022-08-17T16:04:31.868Z,31.44
2022-08-17T16:06:37.403Z,31.50
2022-08-17T16:08:44.235Z,31.46
2022-08-17T16:10:49.877Z,31.42
2022-08-17T16:12:55.598Z,31.11
2022-08-17T16:15:03.663Z,31.10
2022-08-17T16:17:39.085Z,31.09
2022-08-17T16:19:35.902Z,31.08
2022-08-17T16:21:42.633Z,31.11
2022-08-17T16:23:48.219Z,30.97
2022-08-17T16:25:54.389Z,30.87
2022-08-17T16:27:59.721Z,30.83
2022-08-17T16:30:08.264Z,30.69
2022-08-17T16:32:16.205Z,30.63
2022-08-17T16:34:21.588Z,30.59
2022-08-17T16:36:26.487Z,30.59
2022-08-17T16:38:31.030Z,30.58
2022-08-17T16:40:36.494Z,30.59
2022-08-17T16:42:41.702Z,30.55
2022-08-17T16:44:46.646Z,30.56
2022-08-17T16:46:53.989Z,30.51
2022-08-17T16:49:00.697Z,30.50
2022-08-17T16:51:05.517Z,30.51
2022-08-17T16:53:11.050Z,30.49
2022-08-17T16:55:16.349Z,30.31
2022-08-17T16:57:21.292Z,30.29
2022-08-17T16:59:31.337Z,30.25
2022-08-17T17:01:44.498Z,30.19
2022-08-17T17:03:58.117Z,30.07
2022-08-17T17:06:13.682Z,29.97
2022-08-17T17:08:28.019Z,29.95
2022-08-17T17:10:40.293Z,29.93
2022-08-17T17:13:01.019Z,29.90
2022-08-17T17:15:09.750Z,29.90
2022-08-17T17:17:22.336Z,29.84
2022-08-17T17:19:38.204Z,29.73
2022-08-17T17:21:49.689Z,29.69
2022-08-17T17:23:59.825Z,29.63
2022-08-17T17:26:14.679Z,29.62
2022-08-17T17:28:27.587Z,29.58
2022-08-17T17:30:40.561Z,29.52
2022-08-17T17:32:52.058Z,29.46
2022-08-17T17:35:06.444Z,29.44
2022-08-17T17:37:17.800Z,29.34
2022-08-17T17:39:30.904Z,29.30
2022-08-17T17:41:43.297Z,29.24
2022-08-17T17:43:49.427Z,29.21
2022-08-17T17:46:07.592Z,29.18
2022-08-17T17:48:26.565Z,29.14
2022-08-17T17:50:39.993Z,29.07
2022-08-17T17:52:54.544Z,29.05
2022-08-17T17:55:09.165Z,29.01
2022-08-17T17:57:24.679Z,28.95
2022-08-17T17:59:32.199Z,28.86
2022-08-17T18:01:47.810Z,28.82
2022-08-17T18:04:08.338Z,28.79
2022-08-17T18:06:39.903Z,28.74
2022-08-17T18:09:06.331Z,28.69
2022-08-17T18:11:24.575Z,28.58
2022-08-17T18:13:39.398Z,28.54
2022-08-17T18:15:51.078Z,28.52
2022-08-17T18:18:24.761Z,28.50
2022-08-17T18:20:32.380Z,28.42
2022-08-17T18:22:50.583Z,28.39
2022-08-17T18:24:58.924Z,28.37
2022-08-17T18:27:08.340Z,28.35
2022-08-17T18:29:25.952Z,28.32
2022-08-17T18:31:31.175Z,28.28
2022-08-17T18:33:37.052Z,28.24
2022-08-17T18:35:42.066Z,28.18
2022-08-17T18:37:51.729Z,28.13
2022-08-17T18:39:56.861Z,28.11
2022-08-17T18:42:04.857Z,28.04
2022-08-17T18:44:26.496Z,28.01
2022-08-17T18:46:35.311Z,27.95
2022-08-17T18:48:59.096Z,27.91
2022-08-17T18:51:26.363Z,27.84
2022-08-17T18:54:12.079Z,27.76
2022-08-17T18:56:35.807Z,27.66
2022-08-17T18:58:40.757Z,27.60
2022-08-17T19:00:46.536Z,27.48
2022-08-17T19:02:54.760Z,27.42
2022-08-17T19:05:03.950Z,27.32
2022-08-17T19:07:13.278Z,27.27
2022-08-17T19:09:35.513Z,27.27
2022-08-17T19:11:42.045Z,27.22
2022-08-17T19:13:54.584Z,27.22
2022-08-17T19:16:15.070Z,27.23
2022-08-17T19:18:26.983Z,27.18
2022-08-17T19:20:35.415Z,27.16
2022-08-17T19:22:51.913Z,27.12
2022-08-17T19:25:12.171Z,27.09
2022-08-17T19:27:25.523Z,27.05
2022-08-17T19:29:45.928Z,27.02
2022-08-17T19:31:51.102Z,26.99
2022-08-17T19:33:57.013Z,26.94
2022-08-17T19:36:09.885Z,26.88
2022-08-17T19:38:27.812Z,26.78
2022-08-17T19:40:52.987Z,26.69
2022-08-17T19:43:03.018Z,26.56
2022-08-17T19:45:17.571Z,26.54
2022-08-17T19:47:53.704Z,26.52
2022-08-17T19:50:05.816Z,26.46
2022-08-17T19:52:30.958Z,26.44
2022-08-17T19:54:43.272Z,26.42
2022-08-17T19:56:57.985Z,26.42
2022-08-17T19:59:12.751Z,26.43
2022-08-17T20:01:23.444Z,26.44
2022-08-17T20:03:34.863Z,26.41
2022-08-17T20:06:01.435Z,26.42
2022-08-17T20:08:14.833Z,26.39
2022-08-17T20:10:29.067Z,26.37
2022-08-17T20:12:39.504Z,26.34
2022-08-17T20:14:53.594Z,26.27
2022-08-17T20:17:02.748Z,26.21
2022-08-17T20:19:11.224Z,26.15
2022-08-17T20:21:21.127Z,26.10
2022-08-17T20:23:48.364Z,26.11
2022-08-17T20:26:00.945Z,26.09
2022-08-17T20:28:27.980Z,26.10
2022-08-17T20:30:40.379Z,26.11
2022-08-17T20:32:55.543Z,26.13
2022-08-17T20:35:11.428Z,26.06
2022-08-17T20:37:30.782Z,26.03
2022-08-17T20:39:39.913Z,25.97
2022-08-17T20:42:07.823Z,25.95
2022-08-17T20:44:34.729Z,25.84
2022-08-17T20:47:04.029Z,25.71
2022-08-17T20:49:23.552Z,25.59
2022-08-17T20:51:38.651Z,25.51
2022-08-17T20:54:09.566Z,25.33
2022-08-17T20:56:34.457Z,25.26
2022-08-17T20:58:47.273Z,25.26
2022-08-17T21:01:13.951Z,25.24
2022-08-17T21:03:54.271Z,25.25
2022-08-17T21:06:03.624Z,25.26
2022-08-17T21:08:22.237Z,25.24
2022-08-17T21:10:38.342Z,25.26
2022-08-17T21:12:48.080Z,25.24
2022-08-17T21:15:04.868Z,25.27
2022-08-17T21:17:38.200Z,25.26
2022-08-17T21:20:10.977Z,25.27
2022-08-17T21:22:31.219Z,25.24
2022-08-17T21:24:46.340Z,25.22
2022-08-17T21:27:04.582Z,25.17
2022-08-17T21:29:29.935Z,25.14
2022-08-17T21:31:39.283Z,25.07
2022-08-17T21:34:21.648Z,25.04
2022-08-17T21:36:29.981Z,25.04
2022-08-17T21:38:39.083Z,25.02
2022-08-17T21:40:50.108Z,25.01
2022-08-17T21:42:58.281Z,24.97
2022-08-17T21:45:12.355Z,24.92
2022-08-17T21:47:24.692Z,24.90
2022-08-17T21:49:36.667Z,24.89
2022-08-17T21:51:47.273Z,24.87
2022-08-17T21:53:55.937Z,24.81
2022-08-17T21:56:00.965Z,24.76
2022-08-17T21:58:14.149Z,24.68
2022-08-17T22:00:29.514Z,24.71
2022-08-17T22:02:37.207Z,24.74
2022-08-17T22:04:45.961Z,24.79
2022-08-17T22:06:57.308Z,24.83
2022-08-17T22:09:21.820Z,24.82
2022-08-17T22:11:26.868Z,24.83
2022-08-17T22:13:31.611Z,24.84
2022-08-17T22:15:39.921Z,24.87
2022-08-17T22:17:47.671Z,24.92
2022-08-17T22:19:57.772Z,24.97
2022-08-17T22:22:06.409Z,25.00
2022-08-17T22:24:21.686Z,25.10
2022-08-17T22:26:29.022Z,25.11
2022-08-17T22:28:42.883Z,25.11
2022-08-17T22:31:04.399Z,25.06
2022-08-17T22:33:39.721Z,25.00
2022-08-17T22:35:48.015Z,25.01
2022-08-17T22:37:50.569Z,25.04
2022-08-17T22:40:02.363Z,25.08
2022-08-17T22:42:08.562Z,25.06
2022-08-17T22:44:24.210Z,25.02
2022-08-17T22:46:29.242Z,24.93
2022-08-17T22:48:34.241Z,24.94
2022-08-17T22:50:42.117Z,24.97
2022-08-17T22:53:12.282Z,25.00
2022-08-17T22:55:31.900Z,24.97
2022-08-17T22:57:50.242Z,25.01
2022-08-17T22:59:57.612Z,25.00
2022-08-17T23:02:25.763Z,25.03
2022-08-17T23:04:36.382Z,25.03
2022-08-17T23:06:43.198Z,25.06
2022-08-17T23:08:54.885Z,25.08
2022-08-17T23:11:01.252Z,25.09
2022-08-17T23:13:06.617Z,25.07
2022-08-17T23:15:15.813Z,25.05
2022-08-17T23:17:21.039Z,25.05
2022-08-17T23:19:26.494Z,25.08
2022-08-17T23:21:32.324Z,25.10
2022-08-17T23:23:42.073Z,25.11
2022-08-17T23:25:49.746Z,25.11
2022-08-17T23:27:54.590Z,25.13
2022-08-17T23:29:59.525Z,25.07
2022-08-17T23:32:04.938Z,25.07
2022-08-17T23:34:14.735Z,25.02
2022-08-17T23:36:19.857Z,24.98
2022-08-17T23:38:27.187Z,24.95
2022-08-17T23:40:32.776Z,24.91
2022-08-17T23:42:46.312Z,24.87
2022-08-17T23:44:52.310Z,24.78
2022-08-17T23:46:57.511Z,24.72
2022-08-17T23:49:03.317Z,24.69
2022-08-17T23:51:12.303Z,24.63
2022-08-17T23:53:17.786Z,24.65
2022-08-17T23:55:22.736Z,24.66
2022-08-17T23:57:33.450Z,24.71
2022-08-17T23:59:43.957Z,24.76
